sensor_id;sensor_type;location;lat;lon;timestamp;P1;durP1;ratioP1;P2;durP2;ratioP2
3095;SDS011;1558;42.700;23.360;2022-09-12T00:00:02;8.30;;;7.60;;
3095;SDS011;1558;42.700;23.360;2022-09-12T00:02:31;8.10;;;7.50;;
3095;SDS011;1558;42.700;23.360;2022-09-12T00:05:00;8.67;;;7.97;;
3095;SDS011;1558;42.700;23.360;2022-09-12T00:07:28;8.83;;;8.13;;
3095;SDS011;1558;42.700;23.360;2022-09-12T00:09:56;9.97;;;9.07;;
3095;SDS011;1558;42.700;23.360;2022-09-12T00:12:24;9.97;;;8.77;;
3095;SDS011;1558;42.700;23.360;2022-09-12T00:14:52;10.40;;;8.80;;
3095;SDS011;1558;42.700;23.360;2022-09-12T00:17:20;8.83;;;8.17;;
3095;SDS011;1558;42.700;23.360;2022-09-12T00:19:48;9.60;;;8.73;;
3095;SDS011;1558;42.700;23.360;2022-09-12T00:22:17;9.37;;;8.67;;
3095;SDS011;1558;42.700;23.360;2022-09-12T00:24:45;9.63;;;8.83;;
3095;SDS011;1558;42.700;23.360;2022-09-12T00:27:13;9.77;;;8.90;;
3095;SDS011;1558;42.700;23.360;2022-09-12T00:29:40;9.60;;;8.87;;
3095;SDS011;1558;42.700;23.360;2022-09-12T00:32:08;9.50;;;8.70;;
3095;SDS011;1558;42.700;23.360;2022-09-12T00:34:36;9.07;;;8.37;;
3095;SDS011;1558;42.700;23.360;2022-09-12T00:37:04;9.17;;;8.47;;
3095;SDS011;1558;42.700;23.360;2022-09-12T00:39:34;8.30;;;7.70;;
3095;SDS011;1558;42.700;23.360;2022-09-12T00:42:02;8.93;;;8.23;;
3095;SDS011;1558;42.700;23.360;2022-09-12T00:44:46;8.63;;;7.90;;
3095;SDS011;1558;42.700;23.360;2022-09-12T00:47:21;8.13;;;7.43;;
3095;SDS011;1558;42.700;23.360;2022-09-12T00:49:54;8.47;;;7.77;;
3095;SDS011;1558;42.700;23.360;2022-09-12T00:52:28;8.30;;;7.60;;
3095;SDS011;1558;42.700;23.360;2022-09-12T00:55:02;7.60;;;7.00;;
3095;SDS011;1558;42.700;23.360;2022-09-12T00:57:35;7.00;;;6.50;;
3095;SDS011;1558;42.700;23.360;2022-09-12T01:00:08;7.67;;;6.93;;
3095;SDS011;1558;42.700;23.360;2022-09-12T01:02:42;7.30;;;6.67;;
3095;SDS011;1558;42.700;23.360;2022-09-12T01:05:12;7.70;;;7.10;;
3095;SDS011;1558;42.700;23.360;2022-09-12T01:07:40;7.10;;;6.60;;
3095;SDS011;1558;42.700;23.360;2022-09-12T01:10:11;7.20;;;6.60;;
3095;SDS011;1558;42.700;23.360;2022-09-12T01:12:39;7.47;;;6.87;;
3095;SDS011;1558;42.700;23.360;2022-09-12T01:15:09;7.67;;;7.07;;
3095;SDS011;1558;42.700;23.360;2022-09-12T01:17:40;7.97;;;7.17;;
3095;SDS011;1558;42.700;23.360;2022-09-12T01:20:26;7.37;;;6.67;;
3095;SDS011;1558;42.700;23.360;2022-09-12T01:29:49;6.93;;;6.33;;
3095;SDS011;1558;42.700;23.360;2022-09-12T01:32:33;6.47;;;6.07;;
3095;SDS011;1558;42.700;23.360;2022-09-12T01:35:15;7.20;;;6.70;;
3095;SDS011;1558;42.700;23.360;2022-09-12T01:37:51;7.13;;;6.53;;
3095;SDS011;1558;42.700;23.360;2022-09-12T01:40:32;6.83;;;6.33;;
3095;SDS011;1558;42.700;23.360;2022-09-12T01:43:08;6.97;;;6.37;;
3095;SDS011;1558;42.700;23.360;2022-09-12T01:45:46;7.50;;;6.80;;
3095;SDS011;1558;42.700;23.360;2022-09-12T01:48:25;6.70;;;6.20;;
3095;SDS011;1558;42.700;23.360;2022-09-12T01:50:57;7.17;;;6.47;;
3095;SDS011;1558;42.700;23.360;2022-09-12T01:53:32;8.73;;;7.43;;
3095;SDS011;1558;42.700;23.360;2022-09-12T01:56:05;6.83;;;6.33;;
3095;SDS011;1558;42.700;23.360;2022-09-12T01:58:37;6.97;;;6.37;;
3095;SDS011;1558;42.700;23.360;2022-09-12T02:01:11;6.53;;;5.93;;
3095;SDS011;1558;42.700;23.360;2022-09-12T02:03:47;6.30;;;5.80;;
3095;SDS011;1558;42.700;23.360;2022-09-12T02:06:23;6.63;;;6.03;;
3095;SDS011;1558;42.700;23.360;2022-09-12T02:08:54;6.50;;;6.00;;
3095;SDS011;1558;42.700;23.360;2022-09-12T02:11:25;6.10;;;5.57;;
3095;SDS011;1558;42.700;23.360;2022-09-12T02:13:58;6.80;;;6.30;;
3095;SDS011;1558;42.700;23.360;2022-09-12T02:16:31;7.47;;;5.97;;
3095;SDS011;1558;42.700;23.360;2022-09-12T02:19:08;7.17;;;6.50;;
3095;SDS011;1558;42.700;23.360;2022-09-12T02:21:39;7.10;;;6.60;;
3095;SDS011;1558;42.700;23.360;2022-09-12T02:24:14;6.73;;;6.23;;
3095;SDS011;1558;42.700;23.360;2022-09-12T02:26:45;6.20;;;5.60;;
3095;SDS011;1558;42.700;23.360;2022-09-12T02:29:16;6.40;;;5.90;;
3095;SDS011;1558;42.700;23.360;2022-09-12T02:31:44;7.17;;;6.33;;
3095;SDS011;1558;42.700;23.360;2022-09-12T02:34:19;7.67;;;6.97;;
3095;SDS011;1558;42.700;23.360;2022-09-12T02:36:56;7.40;;;6.80;;
3095;SDS011;1558;42.700;23.360;2022-09-12T02:39:29;7.27;;;6.70;;
3095;SDS011;1558;42.700;23.360;2022-09-12T02:41:58;8.50;;;7.10;;
3095;SDS011;1558;42.700;23.360;2022-09-12T02:44:28;7.13;;;6.43;;
3095;SDS011;1558;42.700;23.360;2022-09-12T02:46:59;7.47;;;6.87;;
3095;SDS011;1558;42.700;23.360;2022-09-12T02:49:32;6.63;;;6.13;;
3095;SDS011;1558;42.700;23.360;2022-09-12T02:52:00;7.20;;;6.70;;
3095;SDS011;1558;42.700;23.360;2022-09-12T02:54:29;7.20;;;6.70;;
3095;SDS011;1558;42.700;23.360;2022-09-12T02:56:57;6.90;;;6.40;;
3095;SDS011;1558;42.700;23.360;2022-09-12T02:59:25;7.30;;;6.67;;
3095;SDS011;1558;42.700;23.360;2022-09-12T03:02:00;6.53;;;6.03;;
3095;SDS011;1558;42.700;23.360;2022-09-12T03:04:52;6.97;;;6.13;;
3095;SDS011;1558;42.700;23.360;2022-09-12T03:07:38;7.53;;;6.70;;
3095;SDS011;1558;42.700;23.360;2022-09-12T03:10:18;6.57;;;6.07;;
3095;SDS011;1558;42.700;23.360;2022-09-12T03:12:56;6.87;;;6.27;;
3095;SDS011;1558;42.700;23.360;2022-09-12T03:15:36;7.00;;;6.37;;
3095;SDS011;1558;42.700;23.360;2022-09-12T03:18:17;6.90;;;6.40;;
3095;SDS011;1558;42.700;23.360;2022-09-12T03:20:56;7.07;;;6.47;;
3095;SDS011;1558;42.700;23.360;2022-09-12T03:23:30;6.50;;;5.90;;
3095;SDS011;1558;42.700;23.360;2022-09-12T03:26:05;7.27;;;6.60;;
3095;SDS011;1558;42.700;23.360;2022-09-12T03:28:39;7.70;;;6.90;;
3095;SDS011;1558;42.700;23.360;2022-09-12T03:31:12;7.90;;;7.20;;
3095;SDS011;1558;42.700;23.360;2022-09-12T03:33:41;7.97;;;7.27;;
3095;SDS011;1558;42.700;23.360;2022-09-12T03:36:14;8.50;;;7.77;;
3095;SDS011;1558;42.700;23.360;2022-09-12T03:38:43;8.43;;;7.63;;
3095;SDS011;1558;42.700;23.360;2022-09-12T03:41:11;8.10;;;7.40;;
3095;SDS011;1558;42.700;23.360;2022-09-12T03:43:39;8.57;;;7.77;;
3095;SDS011;1558;42.700;23.360;2022-09-12T03:46:08;9.30;;;8.40;;
3095;SDS011;1558;42.700;23.360;2022-09-12T03:48:36;8.57;;;7.80;;
3095;SDS011;1558;42.700;23.360;2022-09-12T03:51:04;8.70;;;8.00;;
3095;SDS011;1558;42.700;23.360;2022-09-12T03:53:35;7.90;;;7.30;;
3095;SDS011;1558;42.700;23.360;2022-09-12T03:56:04;8.33;;;7.60;;
3095;SDS011;1558;42.700;23.360;2022-09-12T03:58:33;8.80;;;8.00;;
3095;SDS011;1558;42.700;23.360;2022-09-12T04:01:06;9.90;;;8.90;;
3095;SDS011;1558;42.700;23.360;2022-09-12T04:03:37;8.50;;;7.80;;
3095;SDS011;1558;42.700;23.360;2022-09-12T04:06:06;8.53;;;7.83;;
3095;SDS011;1558;42.700;23.360;2022-09-12T04:08:37;9.07;;;8.27;;
3095;SDS011;1558;42.700;23.360;2022-09-12T04:11:06;8.63;;;7.93;;
3095;SDS011;1558;42.700;23.360;2022-09-12T04:13:36;9.43;;;8.53;;
3095;SDS011;1558;42.700;23.360;2022-09-12T04:16:05;10.63;;;8.60;;
3095;SDS011;1558;42.700;23.360;2022-09-12T04:18:33;11.50;;;8.90;;
3095;SDS011;1558;42.700;23.360;2022-09-12T04:21:02;8.77;;;8.07;;
3095;SDS011;1558;42.700;23.360;2022-09-12T04:23:31;9.23;;;8.33;;
3095;SDS011;1558;42.700;23.360;2022-09-12T04:26:01;8.50;;;7.80;;
3095;SDS011;1558;42.700;23.360;2022-09-12T04:28:32;8.80;;;7.60;;
3095;SDS011;1558;42.700;23.360;2022-09-12T04:31:01;7.70;;;7.07;;
3095;SDS011;1558;42.700;23.360;2022-09-12T04:33:31;8.10;;;7.40;;
3095;SDS011;1558;42.700;23.360;2022-09-12T04:36:03;8.10;;;7.30;;
3095;SDS011;1558;42.700;23.360;2022-09-12T04:38:32;7.40;;;6.80;;
3095;SDS011;1558;42.700;23.360;2022-09-12T04:41:06;7.90;;;7.20;;
3095;SDS011;1558;42.700;23.360;2022-09-12T04:43:36;7.73;;;7.00;;
3095;SDS011;1558;42.700;23.360;2022-09-12T04:46:05;12.53;;;9.80;;
3095;SDS011;1558;42.700;23.360;2022-09-12T04:48:33;9.87;;;8.90;;
3095;SDS011;1558;42.700;23.360;2022-09-12T04:51:05;8.90;;;8.10;;
3095;SDS011;1558;42.700;23.360;2022-09-12T04:53:34;8.57;;;7.67;;
3095;SDS011;1558;42.700;23.360;2022-09-12T04:56:04;7.20;;;6.60;;
3095;SDS011;1558;42.700;23.360;2022-09-12T04:58:33;9.50;;;7.37;;
3095;SDS011;1558;42.700;23.360;2022-09-12T05:01:02;7.33;;;6.73;;
3095;SDS011;1558;42.700;23.360;2022-09-12T05:03:31;9.57;;;6.70;;
3095;SDS011;1558;42.700;23.360;2022-09-12T05:06:00;7.50;;;5.97;;
3095;SDS011;1558;42.700;23.360;2022-09-12T05:08:29;7.50;;;6.70;;
3095;SDS011;1558;42.700;23.360;2022-09-12T05:11:00;7.20;;;6.50;;
3095;SDS011;1558;42.700;23.360;2022-09-12T05:13:30;7.23;;;6.63;;
3095;SDS011;1558;42.700;23.360;2022-09-12T05:16:00;7.37;;;6.70;;
3095;SDS011;1558;42.700;23.360;2022-09-12T05:18:29;6.30;;;5.80;;
3095;SDS011;1558;42.700;23.360;2022-09-12T05:20:58;6.83;;;6.20;;
3095;SDS011;1558;42.700;23.360;2022-09-12T05:23:27;6.60;;;6.10;;
3095;SDS011;1558;42.700;23.360;2022-09-12T05:25:56;7.53;;;6.07;;
3095;SDS011;1558;42.700;23.360;2022-09-12T05:28:28;6.90;;;6.27;;
3095;SDS011;1558;42.700;23.360;2022-09-12T05:30:59;7.27;;;6.67;;
3095;SDS011;1558;42.700;23.360;2022-09-12T05:33:28;7.43;;;6.73;;
3095;SDS011;1558;42.700;23.360;2022-09-12T05:35:56;7.60;;;7.00;;
3095;SDS011;1558;42.700;23.360;2022-09-12T05:38:24;8.63;;;6.83;;
3095;SDS011;1558;42.700;23.360;2022-09-12T05:41:01;7.20;;;6.50;;
3095;SDS011;1558;42.700;23.360;2022-09-12T05:43:31;8.30;;;7.50;;
3095;SDS011;1558;42.700;23.360;2022-09-12T05:45:59;8.10;;;7.30;;
3095;SDS011;1558;42.700;23.360;2022-09-12T05:48:28;7.90;;;7.10;;
3095;SDS011;1558;42.700;23.360;2022-09-12T05:51:00;9.93;;;6.50;;
3095;SDS011;1558;42.700;23.360;2022-09-12T05:53:29;8.30;;;7.50;;
3095;SDS011;1558;42.700;23.360;2022-09-12T05:56:01;8.30;;;7.50;;
3095;SDS011;1558;42.700;23.360;2022-09-12T05:58:35;12.40;;;8.05;;
3095;SDS011;1558;42.700;23.360;2022-09-12T06:01:05;6.88;;;6.05;;
3095;SDS011;1558;42.700;23.360;2022-09-12T06:03:39;7.72;;;7.03;;
3095;SDS011;1558;42.700;23.360;2022-09-12T06:06:08;7.97;;;6.35;;
3095;SDS011;1558;42.700;23.360;2022-09-12T06:08:39;7.07;;;6.40;;
3095;SDS011;1558;42.700;23.360;2022-09-12T06:11:09;7.20;;;6.60;;
3095;SDS011;1558;42.700;23.360;2022-09-12T06:13:40;7.22;;;6.28;;
3095;SDS011;1558;42.700;23.360;2022-09-12T06:16:09;7.22;;;6.07;;
3095;SDS011;1558;42.700;23.360;2022-09-12T06:18:39;8.95;;;6.57;;
3095;SDS011;1558;42.700;23.360;2022-09-12T06:21:08;6.60;;;6.00;;
3095;SDS011;1558;42.700;23.360;2022-09-12T06:23:38;7.93;;;6.00;;
3095;SDS011;1558;42.700;23.360;2022-09-12T06:26:07;7.60;;;6.47;;
3095;SDS011;1558;42.700;23.360;2022-09-12T06:28:37;8.93;;;5.90;;
3095;SDS011;1558;42.700;23.360;2022-09-12T06:31:08;6.40;;;5.90;;
3095;SDS011;1558;42.700;23.360;2022-09-12T06:33:39;6.40;;;5.90;;
3095;SDS011;1558;42.700;23.360;2022-09-12T06:36:09;6.60;;;6.00;;
3095;SDS011;1558;42.700;23.360;2022-09-12T06:38:38;6.20;;;5.80;;
3095;SDS011;1558;42.700;23.360;2022-09-12T06:41:08;8.95;;;5.88;;
3095;SDS011;1558;42.700;23.360;2022-09-12T06:43:37;8.63;;;5.93;;
3095;SDS011;1558;42.700;23.360;2022-09-12T06:46:06;6.95;;;6.25;;
3095;SDS011;1558;42.700;23.360;2022-09-12T06:48:36;6.72;;;6.10;;
3095;SDS011;1558;42.700;23.360;2022-09-12T06:51:08;7.32;;;6.55;;
3095;SDS011;1558;42.700;23.360;2022-09-12T06:53:38;9.25;;;7.45;;
3095;SDS011;1558;42.700;23.360;2022-09-12T06:56:08;8.75;;;7.45;;
3095;SDS011;1558;42.700;23.360;2022-09-12T06:58:37;7.20;;;6.60;;
3095;SDS011;1558;42.700;23.360;2022-09-12T07:01:07;7.82;;;7.07;;
3095;SDS011;1558;42.700;23.360;2022-09-12T07:03:37;7.32;;;6.72;;
3095;SDS011;1558;42.700;23.360;2022-09-12T07:06:06;7.30;;;6.70;;
3095;SDS011;1558;42.700;23.360;2022-09-12T07:08:36;7.22;;;6.53;;
3095;SDS011;1558;42.700;23.360;2022-09-12T07:11:10;7.10;;;6.40;;
3095;SDS011;1558;42.700;23.360;2022-09-12T07:13:40;9.23;;;6.22;;
3095;SDS011;1558;42.700;23.360;2022-09-12T07:16:10;9.10;;;5.80;;
3095;SDS011;1558;42.700;23.360;2022-09-12T07:18:48;7.20;;;6.50;;
3095;SDS011;1558;42.700;23.360;2022-09-12T07:21:17;6.75;;;6.25;;
3095;SDS011;1558;42.700;23.360;2022-09-12T07:23:45;6.30;;;5.70;;
3095;SDS011;1558;42.700;23.360;2022-09-12T07:26:14;8.35;;;5.65;;
3095;SDS011;1558;42.700;23.360;2022-09-12T07:28:43;6.25;;;5.85;;
3095;SDS011;1558;42.700;23.360;2022-09-12T07:31:12;6.07;;;5.68;;
3095;SDS011;1558;42.700;23.360;2022-09-12T07:33:41;6.63;;;5.45;;
3095;SDS011;1558;42.700;23.360;2022-09-12T07:36:12;5.72;;;5.32;;
3095;SDS011;1558;42.700;23.360;2022-09-12T07:38:42;6.57;;;5.95;;
3095;SDS011;1558;42.700;23.360;2022-09-12T07:41:11;6.05;;;5.55;;
3095;SDS011;1558;42.700;23.360;2022-09-12T07:43:40;6.28;;;5.78;;
3095;SDS011;1558;42.700;23.360;2022-09-12T07:46:08;7.18;;;5.97;;
3095;SDS011;1558;42.700;23.360;2022-09-12T07:48:37;7.10;;;6.40;;
3095;SDS011;1558;42.700;23.360;2022-09-12T07:51:06;6.82;;;6.18;;
3095;SDS011;1558;42.700;23.360;2022-09-12T07:53:38;6.95;;;6.00;;
3095;SDS011;1558;42.700;23.360;2022-09-12T07:56:09;7.82;;;6.35;;
3095;SDS011;1558;42.700;23.360;2022-09-12T07:58:38;6.53;;;5.95;;
3095;SDS011;1558;42.700;23.360;2022-09-12T08:01:11;6.68;;;6.18;;
3095;SDS011;1558;42.700;23.360;2022-09-12T08:03:40;6.97;;;5.80;;
3095;SDS011;1558;42.700;23.360;2022-09-12T08:06:10;6.88;;;6.25;;
3095;SDS011;1558;42.700;23.360;2022-09-12T08:08:41;6.50;;;6.10;;
3095;SDS011;1558;42.700;23.360;2022-09-12T08:11:10;7.00;;;5.80;;
3095;SDS011;1558;42.700;23.360;2022-09-12T08:13:40;6.88;;;6.03;;
3095;SDS011;1558;42.700;23.360;2022-09-12T08:16:09;6.00;;;5.50;;
3095;SDS011;1558;42.700;23.360;2022-09-12T08:18:39;5.85;;;5.38;;
3095;SDS011;1558;42.700;23.360;2022-09-12T08:21:09;9.63;;;6.07;;
3095;SDS011;1558;42.700;23.360;2022-09-12T08:23:39;13.18;;;5.70;;
3095;SDS011;1558;42.700;23.360;2022-09-12T08:26:09;6.05;;;5.65;;
3095;SDS011;1558;42.700;23.360;2022-09-12T08:28:38;5.88;;;5.30;;
3095;SDS011;1558;42.700;23.360;2022-09-12T08:31:07;5.82;;;5.32;;
3095;SDS011;1558;42.700;23.360;2022-09-12T08:33:37;13.35;;;6.60;;
3095;SDS011;1558;42.700;23.360;2022-09-12T08:36:06;8.43;;;5.63;;
3095;SDS011;1558;42.700;23.360;2022-09-12T08:38:37;7.70;;;5.50;;
3095;SDS011;1558;42.700;23.360;2022-09-12T08:41:10;5.78;;;5.28;;
3095;SDS011;1558;42.700;23.360;2022-09-12T08:43:49;6.13;;;5.53;;
3095;SDS011;1558;42.700;23.360;2022-09-12T08:46:27;5.50;;;5.10;;
3095;SDS011;1558;42.700;23.360;2022-09-12T08:49:01;11.98;;;6.38;;
3095;SDS011;1558;42.700;23.360;2022-09-12T08:51:32;5.78;;;5.38;;
3095;SDS011;1558;42.700;23.360;2022-09-12T08:54:02;5.32;;;4.82;;
3095;SDS011;1558;42.700;23.360;2022-09-12T08:56:37;6.50;;;4.57;;
3095;SDS011;1558;42.700;23.360;2022-09-12T08:59:07;6.72;;;5.07;;
3095;SDS011;1558;42.700;23.360;2022-09-12T09:01:36;5.03;;;4.53;;
3095;SDS011;1558;42.700;23.360;2022-09-12T09:04:12;5.47;;;4.93;;
3095;SDS011;1558;42.700;23.360;2022-09-12T09:07:02;5.10;;;4.75;;
3095;SDS011;1558;42.700;23.360;2022-09-12T09:09:45;6.65;;;5.50;;
3095;SDS011;1558;42.700;23.360;2022-09-12T09:12:27;8.68;;;5.28;;
3095;SDS011;1558;42.700;23.360;2022-09-12T09:15:12;5.75;;;5.30;;
3095;SDS011;1558;42.700;23.360;2022-09-12T09:17:50;5.53;;;5.13;;
3095;SDS011;1558;42.700;23.360;2022-09-12T09:20:22;7.47;;;5.50;;
3095;SDS011;1558;42.700;23.360;2022-09-12T09:22:57;5.80;;;5.43;;
3095;SDS011;1558;42.700;23.360;2022-09-12T09:25:34;7.80;;;5.45;;
3095;SDS011;1558;42.700;23.360;2022-09-12T09:28:12;5.95;;;5.45;;
3095;SDS011;1558;42.700;23.360;2022-09-12T09:30:43;6.78;;;5.57;;
3095;SDS011;1558;42.700;23.360;2022-09-12T09:33:16;6.72;;;5.43;;
3095;SDS011;1558;42.700;23.360;2022-09-12T09:35:51;6.03;;;5.38;;
3095;SDS011;1558;42.700;23.360;2022-09-12T09:38:28;9.45;;;5.80;;
3095;SDS011;1558;42.700;23.360;2022-09-12T09:41:13;8.07;;;5.25;;
3095;SDS011;1558;42.700;23.360;2022-09-12T09:44:05;5.78;;;5.28;;
3095;SDS011;1558;42.700;23.360;2022-09-12T09:46:34;8.80;;;6.18;;
3095;SDS011;1558;42.700;23.360;2022-09-12T09:49:02;5.97;;;5.50;;
3095;SDS011;1558;42.700;23.360;2022-09-12T09:51:33;5.72;;;5.22;;
3095;SDS011;1558;42.700;23.360;2022-09-12T09:54:04;5.38;;;4.88;;
3095;SDS011;1558;42.700;23.360;2022-09-12T09:56:44;5.45;;;4.95;;
3095;SDS011;1558;42.700;23.360;2022-09-12T09:59:14;6.57;;;5.30;;
3095;SDS011;1558;42.700;23.360;2022-09-12T10:01:45;5.68;;;5.28;;
3095;SDS011;1558;42.700;23.360;2022-09-12T10:04:18;9.93;;;5.38;;
3095;SDS011;1558;42.700;23.360;2022-09-12T10:06:49;6.68;;;5.90;;
3095;SDS011;1558;42.700;23.360;2022-09-12T10:09:23;8.00;;;4.28;;
3095;SDS011;1558;42.700;23.360;2022-09-12T10:11:53;5.68;;;4.95;;
3095;SDS011;1558;42.700;23.360;2022-09-12T10:14:28;5.60;;;4.80;;
3095;SDS011;1558;42.700;23.360;2022-09-12T10:17:00;5.70;;;5.32;;
3095;SDS011;1558;42.700;23.360;2022-09-12T10:19:48;8.77;;;4.97;;
3095;SDS011;1558;42.700;23.360;2022-09-12T10:22:36;5.40;;;5.00;;
3095;SDS011;1558;42.700;23.360;2022-09-12T10:25:05;6.20;;;5.60;;
3095;SDS011;1558;42.700;23.360;2022-09-12T10:27:38;6.63;;;6.13;;
3095;SDS011;1558;42.700;23.360;2022-09-12T10:30:16;5.80;;;5.40;;
3095;SDS011;1558;42.700;23.360;2022-09-12T10:32:47;6.72;;;6.00;;
3095;SDS011;1558;42.700;23.360;2022-09-12T10:35:17;6.93;;;6.43;;
3095;SDS011;1558;42.700;23.360;2022-09-12T10:37:51;7.32;;;6.63;;
3095;SDS011;1558;42.700;23.360;2022-09-12T10:40:22;7.38;;;6.32;;
3095;SDS011;1558;42.700;23.360;2022-09-12T10:42:53;7.07;;;6.03;;
3095;SDS011;1558;42.700;23.360;2022-09-12T10:45:25;6.80;;;6.03;;
3095;SDS011;1558;42.700;23.360;2022-09-12T10:47:55;6.03;;;5.63;;
3095;SDS011;1558;42.700;23.360;2022-09-12T10:50:31;6.18;;;5.50;;
3095;SDS011;1558;42.700;23.360;2022-09-12T10:53:13;5.82;;;5.20;;
3095;SDS011;1558;42.700;23.360;2022-09-12T10:55:53;42.40;;;7.20;;
3095;SDS011;1558;42.700;23.360;2022-09-12T11:01:41;6.00;;;5.55;;
3095;SDS011;1558;42.700;23.360;2022-09-12T11:04:28;7.70;;;5.90;;
3095;SDS011;1558;42.700;23.360;2022-09-12T11:07:19;6.05;;;5.45;;
3095;SDS011;1558;42.700;23.360;2022-09-12T11:10:01;5.80;;;5.40;;
3095;SDS011;1558;42.700;23.360;2022-09-12T11:12:37;7.78;;;5.70;;
3095;SDS011;1558;42.700;23.360;2022-09-12T11:15:23;6.40;;;5.88;;
3095;SDS011;1558;42.700;23.360;2022-09-12T11:18:07;6.30;;;5.88;;
3095;SDS011;1558;42.700;23.360;2022-09-12T11:23:51;20.85;;;5.82;;
3095;SDS011;1558;42.700;23.360;2022-09-12T11:26:37;5.57;;;5.07;;
3095;SDS011;1558;42.700;23.360;2022-09-12T11:29:12;5.90;;;5.50;;
3095;SDS011;1558;42.700;23.360;2022-09-12T11:31:55;6.30;;;5.68;;
3095;SDS011;1558;42.700;23.360;2022-09-12T11:34:42;6.45;;;5.95;;
3095;SDS011;1558;42.700;23.360;2022-09-12T11:37:31;7.60;;;6.82;;
3095;SDS011;1558;42.700;23.360;2022-09-12T11:40:15;6.78;;;6.18;;
3095;SDS011;1558;42.700;23.360;2022-09-12T11:42:54;6.18;;;4.82;;
3095;SDS011;1558;42.700;23.360;2022-09-12T11:45:27;4.95;;;4.55;;
3095;SDS011;1558;42.700;23.360;2022-09-12T11:48:00;5.50;;;4.97;;
3095;SDS011;1558;42.700;23.360;2022-09-12T11:50:35;6.05;;;5.50;;
3095;SDS011;1558;42.700;23.360;2022-09-12T11:53:04;12.88;;;5.40;;
3095;SDS011;1558;42.700;23.360;2022-09-12T11:55:45;5.82;;;5.35;;
3095;SDS011;1558;42.700;23.360;2022-09-12T11:58:19;5.50;;;5.00;;
3095;SDS011;1558;42.700;23.360;2022-09-12T12:00:52;5.57;;;5.10;;
3095;SDS011;1558;42.700;23.360;2022-09-12T12:03:25;5.22;;;4.90;;
3095;SDS011;1558;42.700;23.360;2022-09-12T12:06:00;5.45;;;5.05;;
3095;SDS011;1558;42.700;23.360;2022-09-12T12:08:36;5.75;;;5.20;;
3095;SDS011;1558;42.700;23.360;2022-09-12T12:11:06;6.55;;;5.00;;
3095;SDS011;1558;42.700;23.360;2022-09-12T12:13:35;5.10;;;4.60;;
3095;SDS011;1558;42.700;23.360;2022-09-12T12:16:11;5.05;;;4.43;;
3095;SDS011;1558;42.700;23.360;2022-09-12T12:18:42;9.50;;;4.88;;
3095;SDS011;1558;42.700;23.360;2022-09-12T12:21:31;4.25;;;3.90;;
3095;SDS011;1558;42.700;23.360;2022-09-12T12:24:12;8.18;;;3.67;;
3095;SDS011;1558;42.700;23.360;2022-09-12T12:26:55;4.13;;;3.40;;
3095;SDS011;1558;42.700;23.360;2022-09-12T12:29:36;3.78;;;3.50;;
3095;SDS011;1558;42.700;23.360;2022-09-12T12:32:22;5.18;;;3.33;;
3095;SDS011;1558;42.700;23.360;2022-09-12T12:41:09;3.95;;;3.75;;
3095;SDS011;1558;42.700;23.360;2022-09-12T12:47:16;5.43;;;4.95;;
3095;SDS011;1558;42.700;23.360;2022-09-12T12:49:50;6.95;;;6.45;;
3095;SDS011;1558;42.700;23.360;2022-09-12T12:52:19;6.03;;;4.90;;
3095;SDS011;1558;42.700;23.360;2022-09-12T12:54:49;6.78;;;5.15;;
3095;SDS011;1558;42.700;23.360;2022-09-12T12:57:29;5.53;;;5.00;;
3095;SDS011;1558;42.700;23.360;2022-09-12T13:00:21;6.43;;;5.80;;
3095;SDS011;1558;42.700;23.360;2022-09-12T13:02:55;5.60;;;5.20;;
3095;SDS011;1558;42.700;23.360;2022-09-12T13:05:27;6.03;;;5.63;;
3095;SDS011;1558;42.700;23.360;2022-09-12T13:07:57;4.95;;;4.65;;
3095;SDS011;1558;42.700;23.360;2022-09-12T13:10:32;5.20;;;4.75;;
3095;SDS011;1558;42.700;23.360;2022-09-12T13:13:03;5.57;;;5.18;;
3095;SDS011;1558;42.700;23.360;2022-09-12T13:18:23;6.00;;;5.40;;
3095;SDS011;1558;42.700;23.360;2022-09-12T13:20:59;8.18;;;5.90;;
3095;SDS011;1558;42.700;23.360;2022-09-12T13:23:35;6.88;;;5.68;;
3095;SDS011;1558;42.700;23.360;2022-09-12T13:26:08;6.50;;;5.63;;
3095;SDS011;1558;42.700;23.360;2022-09-12T13:28:38;6.10;;;5.60;;
3095;SDS011;1558;42.700;23.360;2022-09-12T13:31:09;6.20;;;5.80;;
3095;SDS011;1558;42.700;23.360;2022-09-12T13:33:42;7.85;;;4.90;;
3095;SDS011;1558;42.700;23.360;2022-09-12T13:36:19;6.57;;;5.95;;
3095;SDS011;1558;42.700;23.360;2022-09-12T13:39:05;6.70;;;6.20;;
3095;SDS011;1558;42.700;23.360;2022-09-12T13:44:36;6.78;;;6.32;;
3095;SDS011;1558;42.700;23.360;2022-09-12T13:47:09;6.50;;;5.72;;
3095;SDS011;1558;42.700;23.360;2022-09-12T13:49:41;6.47;;;5.97;;
3095;SDS011;1558;42.700;23.360;2022-09-12T13:52:14;6.85;;;6.20;;
3095;SDS011;1558;42.700;23.360;2022-09-12T13:54:45;6.18;;;5.70;;
3095;SDS011;1558;42.700;23.360;2022-09-12T13:57:30;6.32;;;5.93;;
3095;SDS011;1558;42.700;23.360;2022-09-12T14:00:04;7.53;;;6.93;;
3095;SDS011;1558;42.700;23.360;2022-09-12T14:02:35;7.03;;;6.47;;
3095;SDS011;1558;42.700;23.360;2022-09-12T14:05:11;7.53;;;7.03;;
3095;SDS011;1558;42.700;23.360;2022-09-12T14:07:44;7.35;;;6.75;;
3095;SDS011;1558;42.700;23.360;2022-09-12T14:10:22;6.70;;;6.30;;
3095;SDS011;1558;42.700;23.360;2022-09-12T14:12:55;8.77;;;7.32;;
3095;SDS011;1558;42.700;23.360;2022-09-12T14:15:26;6.97;;;6.47;;
3095;SDS011;1558;42.700;23.360;2022-09-12T14:17:57;7.57;;;6.88;;
3095;SDS011;1558;42.700;23.360;2022-09-12T14:20:27;7.97;;;7.37;;
3095;SDS011;1558;42.700;23.360;2022-09-12T14:22:58;7.30;;;6.70;;
3095;SDS011;1558;42.700;23.360;2022-09-12T14:25:31;7.15;;;6.70;;
3095;SDS011;1558;42.700;23.360;2022-09-12T14:28:04;7.20;;;6.47;;
3095;SDS011;1558;42.700;23.360;2022-09-12T14:30:34;6.97;;;6.43;;
3095;SDS011;1558;42.700;23.360;2022-09-12T14:33:11;7.47;;;6.83;;
3095;SDS011;1558;42.700;23.360;2022-09-12T14:35:45;15.20;;;7.43;;
3095;SDS011;1558;42.700;23.360;2022-09-12T14:38:20;7.23;;;6.57;;
3095;SDS011;1558;42.700;23.360;2022-09-12T14:40:51;7.17;;;6.57;;
3095;SDS011;1558;42.700;23.360;2022-09-12T14:43:26;7.63;;;7.03;;
3095;SDS011;1558;42.700;23.360;2022-09-12T14:45:59;7.40;;;6.70;;
3095;SDS011;1558;42.700;23.360;2022-09-12T14:48:30;7.83;;;7.23;;
3095;SDS011;1558;42.700;23.360;2022-09-12T14:51:02;7.57;;;6.90;;
3095;SDS011;1558;42.700;23.360;2022-09-12T14:53:32;7.97;;;6.77;;
3095;SDS011;1558;42.700;23.360;2022-09-12T14:56:05;7.67;;;6.97;;
3095;SDS011;1558;42.700;23.360;2022-09-12T14:58:35;7.10;;;6.50;;
3095;SDS011;1558;42.700;23.360;2022-09-12T15:03:51;6.70;;;6.20;;
3095;SDS011;1558;42.700;23.360;2022-09-12T15:06:22;7.67;;;7.07;;
3095;SDS011;1558;42.700;23.360;2022-09-12T15:08:54;7.27;;;6.67;;
3095;SDS011;1558;42.700;23.360;2022-09-12T15:11:24;7.67;;;7.10;;
3095;SDS011;1558;42.700;23.360;2022-09-12T15:13:52;10.67;;;7.60;;
3095;SDS011;1558;42.700;23.360;2022-09-12T15:16:21;7.00;;;6.30;;
3095;SDS011;1558;42.700;23.360;2022-09-12T15:18:49;6.83;;;6.40;;
3095;SDS011;1558;42.700;23.360;2022-09-12T15:21:18;7.77;;;6.60;;
3095;SDS011;1558;42.700;23.360;2022-09-12T15:23:47;8.23;;;6.50;;
3095;SDS011;1558;42.700;23.360;2022-09-12T15:26:17;7.37;;;6.87;;
3095;SDS011;1558;42.700;23.360;2022-09-12T15:28:46;6.80;;;6.33;;
3095;SDS011;1558;42.700;23.360;2022-09-12T15:31:17;6.10;;;5.67;;
3095;SDS011;1558;42.700;23.360;2022-09-12T15:33:52;7.87;;;7.07;;
3095;SDS011;1558;42.700;23.360;2022-09-12T15:36:20;6.50;;;5.90;;
3095;SDS011;1558;42.700;23.360;2022-09-12T15:38:50;7.20;;;6.70;;
3095;SDS011;1558;42.700;23.360;2022-09-12T15:41:19;6.97;;;6.37;;
3095;SDS011;1558;42.700;23.360;2022-09-12T15:43:48;7.73;;;7.23;;
3095;SDS011;1558;42.700;23.360;2022-09-12T15:46:16;6.83;;;6.33;;
3095;SDS011;1558;42.700;23.360;2022-09-12T15:48:47;6.77;;;6.17;;
3095;SDS011;1558;42.700;23.360;2022-09-12T15:51:16;7.00;;;6.50;;
3095;SDS011;1558;42.700;23.360;2022-09-12T15:53:46;8.37;;;7.63;;
3095;SDS011;1558;42.700;23.360;2022-09-12T15:56:16;11.40;;;10.43;;
3095;SDS011;1558;42.700;23.360;2022-09-12T15:58:45;7.23;;;6.70;;
3095;SDS011;1558;42.700;23.360;2022-09-12T16:01:25;7.43;;;6.93;;
3095;SDS011;1558;42.700;23.360;2022-09-12T16:03:56;7.70;;;7.10;;